createdAt,value
2023-09-05T00:01:59.242Z,100684.87
2023-09-05T00:04:27.366Z,100693.88
2023-09-05T00:06:54.892Z,100682.00
2023-09-05T00:09:22.901Z,100678.31
2023-09-05T00:11:51.881Z,100681.13
2023-09-05T00:14:21.743Z,100678.25
2023-09-05T00:16:49.370Z,100675.88
2023-09-05T00:19:17.633Z,100683.91
2023-09-05T00:21:45.185Z,100675.84
2023-09-05T00:24:37.621Z,100661.25
2023-09-05T00:27:11.178Z,100663.53
2023-09-05T00:29:40.013Z,100658.34
2023-09-05T00:32:10.801Z,100649.09
2023-09-05T00:34:39.389Z,100656.41
2023-09-05T00:37:08.855Z,100654.22
2023-09-05T00:39:41.399Z,100662.81
2023-09-05T00:42:12.199Z,100651.84
2023-09-05T00:44:40.319Z,100655.41
2023-09-05T00:47:07.971Z,100650.13
2023-09-05T00:49:49.196Z,100647.31
2023-09-05T00:52:19.480Z,100646.25
2023-09-05T00:54:47.265Z,100643.28
2023-09-05T00:57:16.070Z,100636.09
2023-09-05T00:59:44.631Z,100635.56
2023-09-05T01:02:12.214Z,100633.41
2023-09-05T01:04:40.232Z,100632.12
2023-09-05T01:07:14.032Z,100630.59
2023-09-05T01:10:04.569Z,100625.28
2023-09-05T01:12:32.565Z,100621.62
2023-09-05T01:15:00.057Z,100627.19
2023-09-05T01:17:28.127Z,100629.25
2023-09-05T01:19:57.165Z,100626.72
2023-09-05T01:22:36.841Z,100617.00
2023-09-05T01:25:05.559Z,100623.22
2023-09-05T01:27:33.899Z,100621.56
2023-09-05T01:30:02.132Z,100629.84
2023-09-05T01:32:29.949Z,100630.25
2023-09-05T01:34:57.620Z,100632.38
2023-09-05T01:37:25.196Z,100642.81
2023-09-05T01:39:53.097Z,100645.72
2023-09-05T01:42:20.615Z,100631.75
2023-09-05T01:44:48.252Z,100628.88
2023-09-05T01:47:16.094Z,100636.41
2023-09-05T01:49:43.598Z,100631.94
2023-09-05T01:52:11.204Z,100628.03
2023-09-05T01:54:40.977Z,100629.87
2023-09-05T01:57:08.630Z,100625.94
2023-09-05T01:59:36.116Z,100620.41
2023-09-05T02:02:04.178Z,100621.84
2023-09-05T02:04:32.119Z,100613.19
2023-09-05T02:07:00.198Z,100615.03
2023-09-05T02:09:39.544Z,100612.81
2023-09-05T02:12:07.588Z,100611.75
2023-09-05T02:14:37.518Z,100618.06
2023-09-05T02:17:05.228Z,100614.94
2023-09-05T02:19:34.309Z,100617.03
2023-09-05T02:22:04.315Z,100617.22
2023-09-05T02:24:32.979Z,100613.66
2023-09-05T02:27:03.035Z,100621.09
2023-09-05T02:29:31.325Z,100612.75
2023-09-05T02:31:58.856Z,100617.16
2023-09-05T02:34:26.416Z,100619.72
2023-09-05T02:36:56.025Z,100625.75
2023-09-05T02:39:23.624Z,100625.19
2023-09-05T02:41:51.369Z,100623.78
2023-09-05T02:44:19.377Z,100625.19
2023-09-05T02:46:46.917Z,100624.91
2023-09-05T02:49:14.440Z,100630.44
2023-09-05T02:51:42.368Z,100632.00
2023-09-05T02:54:10.038Z,100627.72
2023-09-05T02:56:38.581Z,100634.28
2023-09-05T02:59:06.562Z,100632.34
2023-09-05T03:01:34.224Z,100635.12
2023-09-05T03:04:02.256Z,100636.03
2023-09-05T03:06:30.344Z,100633.50
2023-09-05T03:08:58.321Z,100637.94
2023-09-05T03:11:26.047Z,100649.75
2023-09-05T03:13:54.024Z,100646.31
2023-09-05T03:16:22.955Z,100640.84
2023-09-05T03:18:51.572Z,100632.97
2023-09-05T03:21:21.174Z,100641.34
2023-09-05T03:23:48.909Z,100644.16
2023-09-05T03:26:16.568Z,100637.72
2023-09-05T03:28:46.079Z,100646.56
2023-09-05T03:31:14.679Z,100647.78
2023-09-05T03:33:42.515Z,100657.66
2023-09-05T03:36:12.397Z,100666.91
2023-09-05T03:38:39.919Z,100662.41
2023-09-05T03:41:07.755Z,100657.66
2023-09-05T03:43:35.769Z,100663.59
2023-09-05T03:46:03.359Z,100671.63
2023-09-05T03:48:31.076Z,100673.78
2023-09-05T03:50:58.991Z,100667.13
2023-09-05T03:53:26.879Z,100670.34
2023-09-05T03:55:54.671Z,100674.97
2023-09-05T03:58:22.551Z,100676.53
2023-09-05T04:00:50.097Z,100687.53
2023-09-05T04:03:18.079Z,100679.53
2023-09-05T04:05:45.677Z,100680.63
2023-09-05T04:08:13.410Z,100686.41
2023-09-05T04:10:42.032Z,100679.41
2023-09-05T04:13:09.578Z,100684.31
2023-09-05T04:15:37.953Z,100691.75
2023-09-05T04:18:06.232Z,100688.94
2023-09-05T04:20:34.423Z,100693.44
2023-09-05T04:23:02.023Z,100689.88
2023-09-05T04:25:30.848Z,100694.00
2023-09-05T04:27:58.385Z,100692.94
2023-09-05T04:30:25.917Z,100691.91
2023-09-05T04:33:19.620Z,100687.41
2023-09-05T04:35:53.572Z,100695.16
2023-09-05T04:38:23.073Z,100699.81
2023-09-05T04:40:51.425Z,100693.19
2023-09-05T04:43:19.257Z,100699.13
2023-09-05T04:45:55.330Z,100694.37
2023-09-05T04:48:23.457Z,100703.56
2023-09-05T04:50:51.536Z,100704.97
2023-09-05T04:53:20.076Z,100698.59
2023-09-05T04:55:49.256Z,100706.03
2023-09-05T04:58:17.051Z,100699.84
2023-09-05T05:00:44.756Z,100707.28
2023-09-05T05:03:12.390Z,100710.81
2023-09-05T05:05:42.398Z,100714.69
2023-09-05T05:08:09.909Z,100716.22
2023-09-05T05:10:40.661Z,100714.72
2023-09-05T05:13:08.631Z,100725.56
2023-09-05T05:15:36.155Z,100724.34
2023-09-05T05:18:04.050Z,100715.06
2023-09-05T05:20:32.846Z,100718.66
2023-09-05T05:23:00.338Z,100721.31
2023-09-05T05:25:27.859Z,100714.94
2023-09-05T05:27:55.751Z,100718.84
2023-09-05T05:30:23.354Z,100719.56
2023-09-05T05:32:50.861Z,100718.37
2023-09-05T05:35:18.635Z,100725.00
2023-09-05T05:37:46.178Z,100721.72
2023-09-05T05:40:14.437Z,100721.37
2023-09-05T05:42:42.619Z,100707.03
2023-09-05T05:45:11.440Z,100714.22
2023-09-05T05:47:39.187Z,100718.19
2023-09-05T05:50:07.622Z,100723.59
2023-09-05T05:52:35.291Z,100714.72
2023-09-05T05:55:02.819Z,100717.03
2023-09-05T05:57:30.908Z,100713.97
2023-09-05T05:59:58.646Z,100713.31
2023-09-05T06:02:26.513Z,100715.91
2023-09-05T06:04:54.547Z,100714.09
2023-09-05T06:07:22.375Z,100710.91
2023-09-05T06:09:50.369Z,100704.09
2023-09-05T06:12:18.305Z,100704.00
2023-09-05T06:14:46.334Z,100712.16
2023-09-05T06:17:13.990Z,100691.94
2023-09-05T06:19:42.827Z,100699.88
2023-09-05T06:22:11.994Z,100699.25
2023-09-05T06:24:41.823Z,100703.41
2023-09-05T06:27:11.496Z,100698.53
2023-09-05T06:29:39.256Z,100693.28
2023-09-05T06:32:07.102Z,100702.53
2023-09-05T06:34:34.913Z,100701.69
2023-09-05T06:37:02.844Z,100706.12
2023-09-05T06:39:30.984Z,100709.03
2023-09-05T06:41:59.482Z,100702.03
2023-09-05T06:44:31.681Z,100706.19
2023-09-05T06:46:59.894Z,100706.69
2023-09-05T06:49:27.657Z,100698.31
2023-09-05T06:51:55.249Z,100709.88
2023-09-05T06:54:23.159Z,100710.91
2023-09-05T06:56:50.973Z,100719.28
2023-09-05T06:59:18.710Z,100703.12
2023-09-05T07:01:46.826Z,100708.28
2023-09-05T07:04:14.606Z,100698.34
2023-09-05T07:06:42.184Z,100702.16
2023-09-05T07:09:10.309Z,100707.28
2023-09-05T07:11:37.946Z,100711.13
2023-09-05T07:14:05.726Z,100711.69
2023-09-05T07:16:33.701Z,100715.13
2023-09-05T07:19:01.242Z,100711.25
2023-09-05T07:21:29.247Z,100710.78
2023-09-05T07:23:57.221Z,100713.09
2023-09-05T07:26:24.898Z,100710.12
2023-09-05T07:28:52.577Z,100711.97
2023-09-05T07:31:20.773Z,100716.66
2023-09-05T07:33:48.503Z,100718.44
2023-09-05T07:36:16.867Z,100713.31
2023-09-05T07:38:44.673Z,100717.41
2023-09-05T07:41:12.266Z,100716.91
2023-09-05T07:43:39.928Z,100724.47
2023-09-05T07:46:07.875Z,100719.28
2023-09-05T07:48:35.388Z,100714.78
2023-09-05T07:51:06.351Z,100719.53
2023-09-05T07:53:38.361Z,100725.41
2023-09-05T07:56:06.422Z,100727.00
2023-09-05T07:58:35.342Z,100735.69
2023-09-05T08:01:02.896Z,100722.72
2023-09-05T08:03:31.056Z,100730.41
2023-09-05T08:05:58.735Z,100732.44
2023-09-05T08:08:26.406Z,100727.91
2023-09-05T08:10:54.871Z,100731.00
2023-09-05T08:13:22.882Z,100723.94
2023-09-05T08:15:52.109Z,100727.12
2023-09-05T08:18:20.463Z,100725.88
2023-09-05T08:20:48.107Z,100724.72
2023-09-05T08:23:15.807Z,100719.94
2023-09-05T08:25:52.352Z,100721.59
2023-09-05T08:28:20.198Z,100719.41
2023-09-05T08:30:48.534Z,100715.97
2023-09-05T08:33:16.261Z,100710.78
2023-09-05T08:35:43.957Z,100709.16
2023-09-05T08:38:15.101Z,100710.12
2023-09-05T08:40:46.600Z,100704.44
2023-09-05T08:43:18.127Z,100703.06
2023-09-05T08:45:46.741Z,100698.50
2023-09-05T08:48:14.791Z,100700.19
2023-09-05T08:50:42.789Z,100702.19
2023-09-05T08:53:12.078Z,100694.91
2023-09-05T08:55:41.509Z,100683.56
2023-09-05T08:58:15.194Z,100690.94
2023-09-05T09:00:44.925Z,100695.91
2023-09-05T09:03:12.465Z,100686.03
2023-09-05T09:05:40.228Z,100689.16
2023-09-05T09:08:09.194Z,100681.63
2023-09-05T09:10:37.026Z,100675.94
2023-09-05T09:13:16.908Z,100672.59
2023-09-05T09:15:45.272Z,100672.19
2023-09-05T09:18:14.485Z,100658.50
2023-09-05T09:20:46.610Z,100666.75
2023-09-05T09:23:25.474Z,100657.78
2023-09-05T09:25:56.027Z,100655.09
2023-09-05T09:28:25.374Z,100666.16
2023-09-05T09:31:02.436Z,100654.81
2023-09-05T09:33:32.929Z,100658.25
2023-09-05T09:36:10.474Z,100646.97
2023-09-05T09:38:49.637Z,100650.75
2023-09-05T09:41:21.883Z,100643.47
2023-09-05T09:43:55.194Z,100639.34
2023-09-05T09:46:23.954Z,100640.31
2023-09-05T09:48:54.348Z,100636.19
2023-09-05T09:51:24.540Z,100638.62
2023-09-05T09:53:54.518Z,100641.25
2023-09-05T09:56:23.832Z,100649.59
2023-09-05T09:58:52.560Z,100656.50
2023-09-05T10:01:21.122Z,100648.50
2023-09-05T10:03:49.437Z,100644.59
2023-09-05T10:06:17.420Z,100646.06
2023-09-05T10:08:47.093Z,100635.53
2023-09-05T10:11:16.007Z,100633.50
2023-09-05T10:13:44.508Z,100632.84
2023-09-05T10:16:16.185Z,100632.12
2023-09-05T10:18:45.872Z,100640.69
2023-09-05T10:21:13.663Z,100631.53
2023-09-05T10:23:41.556Z,100632.72
2023-09-05T10:26:10.394Z,100627.94
2023-09-05T10:28:38.921Z,100615.75
2023-09-05T10:31:08.649Z,100612.97
2023-09-05T10:33:40.301Z,100615.22
2023-09-05T10:36:40.436Z,100614.44
2023-09-05T10:39:26.666Z,100605.81
2023-09-05T10:41:54.806Z,100608.28
2023-09-05T10:44:25.845Z,100606.97
2023-09-05T10:46:55.078Z,100603.41
2023-09-05T10:49:23.878Z,100595.28
2023-09-05T10:52:20.251Z,100586.63
2023-09-05T10:54:48.341Z,100586.00
2023-09-05T10:57:35.678Z,100580.44
2023-09-05T11:00:16.859Z,100583.06
2023-09-05T11:02:45.039Z,100590.00
2023-09-05T11:05:20.277Z,100588.91
2023-09-05T11:07:49.819Z,100577.28
2023-09-05T11:10:35.800Z,100578.94
2023-09-05T11:13:12.700Z,100579.37
2023-09-05T11:15:44.911Z,100569.47
2023-09-05T11:18:13.972Z,100577.06
2023-09-05T11:20:46.987Z,100576.16
2023-09-05T11:23:15.196Z,100571.41
2023-09-05T11:25:47.881Z,100567.97
2023-09-05T11:28:16.706Z,100574.31
2023-09-05T11:30:46.535Z,100573.50
2023-09-05T11:33:15.650Z,100570.38
2023-09-05T11:35:44.525Z,100566.13
2023-09-05T11:38:14.132Z,100554.94
2023-09-05T11:40:51.928Z,100567.16
2023-09-05T11:43:22.978Z,100563.16
2023-09-05T11:45:54.581Z,100562.84
2023-09-05T11:48:22.494Z,100566.13
2023-09-05T11:50:50.471Z,100555.81
2023-09-05T11:53:20.786Z,100547.59
2023-09-05T11:55:49.005Z,100547.25
2023-09-05T11:58:20.640Z,100542.50
2023-09-05T12:00:51.772Z,100548.47
2023-09-05T12:03:20.070Z,100549.66
2023-09-05T12:05:53.245Z,100539.78
2023-09-05T12:08:35.606Z,100548.06
2023-09-05T12:11:05.163Z,100539.47
2023-09-05T12:13:45.129Z,100530.44
2023-09-05T12:16:18.511Z,100524.31
2023-09-05T12:18:47.339Z,100533.34
2023-09-05T12:21:15.243Z,100528.22
2023-09-05T12:23:42.777Z,100534.69
2023-09-05T12:26:10.657Z,100535.37
2023-09-05T12:28:39.531Z,100537.06
2023-09-05T12:31:08.641Z,100530.44
2023-09-05T12:33:36.599Z,100525.66
2023-09-05T12:36:04.436Z,100525.16
2023-09-05T12:38:32.060Z,100520.75
2023-09-05T12:41:00.031Z,100521.78
2023-09-05T12:43:27.676Z,100509.66
2023-09-05T12:45:55.638Z,100516.00
2023-09-05T12:48:23.519Z,100521.78
2023-09-05T12:50:51.543Z,100522.44
2023-09-05T12:53:21.153Z,100521.34
2023-09-05T12:55:50.132Z,100521.56
2023-09-05T12:58:17.940Z,100518.19
2023-09-05T13:00:48.498Z,100516.34
2023-09-05T13:03:16.890Z,100516.56
2023-09-05T13:05:45.067Z,100518.59
2023-09-05T13:08:12.746Z,100517.63
2023-09-05T13:10:41.195Z,100513.59
2023-09-05T13:13:09.096Z,100502.72
2023-09-05T13:15:37.167Z,100497.09
2023-09-05T13:18:05.503Z,100500.66
2023-09-05T13:20:33.811Z,100502.91
2023-09-05T13:23:01.811Z,100508.81
2023-09-05T13:25:34.387Z,100499.62
2023-09-05T13:28:06.967Z,100500.97
2023-09-05T13:30:35.822Z,100495.34
2023-09-05T13:33:04.401Z,100494.13
2023-09-05T13:35:36.948Z,100492.53
2023-09-05T13:38:04.997Z,100485.91
2023-09-05T13:40:32.712Z,100491.34
2023-09-05T13:43:01.158Z,100486.38
2023-09-05T13:45:29.936Z,100495.53
2023-09-05T13:47:57.988Z,100492.69
2023-09-05T13:50:26.527Z,100494.16
2023-09-05T13:52:54.915Z,100494.72
2023-09-05T13:55:23.006Z,100496.06
2023-09-05T13:57:51.107Z,100493.72
2023-09-05T14:00:21.083Z,100494.53
2023-09-05T14:02:49.174Z,100505.91
2023-09-05T14:05:17.231Z,100498.34
2023-09-05T14:07:44.862Z,100496.44
2023-09-05T14:10:14.013Z,100482.81
2023-09-05T14:12:42.566Z,100493.53
2023-09-05T14:15:10.884Z,100492.50
2023-09-05T14:17:39.048Z,100503.88
2023-09-05T14:20:09.067Z,100497.94
2023-09-05T14:22:36.731Z,100499.62
2023-09-05T14:25:05.380Z,100500.28
2023-09-05T14:27:33.453Z,100492.84
2023-09-05T14:30:01.379Z,100488.72
2023-09-05T14:32:33.924Z,100487.66
2023-09-05T14:35:02.057Z,100490.59
2023-09-05T14:37:30.419Z,100485.97
2023-09-05T14:40:01.184Z,100487.72
2023-09-05T14:42:35.210Z,100481.97
2023-09-05T14:45:07.068Z,100476.91
2023-09-05T14:47:35.669Z,100471.06
2023-09-05T14:50:04.082Z,100476.75
2023-09-05T14:52:35.127Z,100477.75
2023-09-05T14:55:10.955Z,100465.16
2023-09-05T14:57:40.625Z,100462.41
2023-09-05T15:00:13.005Z,100473.66
2023-09-05T15:02:42.052Z,100482.13
2023-09-05T15:05:10.753Z,100479.44
2023-09-05T15:07:39.564Z,100481.22
2023-09-05T15:10:19.131Z,100481.37
2023-09-05T15:12:46.942Z,100480.22
2023-09-05T15:15:15.095Z,100476.12
2023-09-05T15:17:43.726Z,100476.84
2023-09-05T15:20:11.669Z,100479.34
2023-09-05T15:22:40.548Z,100474.28
2023-09-05T15:25:19.659Z,100473.09
2023-09-05T15:27:48.238Z,100475.84
2023-09-05T15:30:19.527Z,100474.41
2023-09-05T15:32:47.681Z,100469.66
2023-09-05T15:35:16.489Z,100474.78
2023-09-05T15:37:45.235Z,100479.06
2023-09-05T15:40:12.903Z,100480.91
2023-09-05T15:42:41.894Z,100473.00
2023-09-05T15:45:10.539Z,100474.63
2023-09-05T15:47:38.635Z,100475.13
2023-09-05T15:50:09.966Z,100468.63
2023-09-05T15:52:37.640Z,100468.06
2023-09-05T15:55:05.748Z,100470.50
2023-09-05T15:57:33.911Z,100475.09
2023-09-05T16:00:01.760Z,100471.69
2023-09-05T16:02:39.539Z,100474.34
2023-09-05T16:05:07.504Z,100474.09
2023-09-05T16:07:35.121Z,100472.94
2023-09-05T16:13:24.272Z,100472.75
2023-09-05T16:15:53.791Z,100480.13
2023-09-05T16:18:22.936Z,100474.41
2023-09-05T16:23:22.745Z,100475.09
2023-09-05T16:25:51.419Z,100472.94
2023-09-05T16:28:19.071Z,100468.22
2023-09-05T16:30:47.006Z,100478.41
2023-09-05T16:33:15.887Z,100474.00
2023-09-05T16:35:43.716Z,100476.72
2023-09-05T16:38:11.145Z,100473.31
2023-09-05T16:40:39.268Z,100482.28
2023-09-05T16:43:06.952Z,100481.44
2023-09-05T16:45:34.472Z,100487.38
2023-09-05T16:48:02.262Z,100484.50
2023-09-05T16:50:32.584Z,100481.75
2023-09-05T16:53:00.593Z,100487.84
2023-09-05T16:55:28.486Z,100479.78
2023-09-05T16:57:56.343Z,100485.56
2023-09-05T17:00:24.965Z,100494.87
2023-09-05T17:02:53.348Z,100494.63
2023-09-05T17:05:20.953Z,100493.12
2023-09-05T17:07:48.588Z,100502.25
2023-09-05T17:10:16.929Z,100505.91
2023-09-05T17:12:44.581Z,100506.13
2023-09-05T17:15:13.648Z,100501.25
2023-09-05T17:17:43.330Z,100502.47
2023-09-05T17:20:11.283Z,100501.25
2023-09-05T17:22:39.433Z,100504.47
2023-09-05T17:25:07.881Z,100504.47
2023-09-05T17:27:35.620Z,100501.75
2023-09-05T17:30:03.701Z,100513.56
2023-09-05T17:32:32.042Z,100513.25
2023-09-05T17:34:59.629Z,100512.69
2023-09-05T17:37:27.158Z,100510.38
2023-09-05T17:39:55.164Z,100515.84
2023-09-05T17:42:22.657Z,100522.25
2023-09-05T17:44:50.358Z,100522.41
2023-09-05T17:47:18.151Z,100522.28
2023-09-05T17:49:45.626Z,100531.00
2023-09-05T17:52:13.133Z,100531.28
2023-09-05T17:54:41.078Z,100542.09
2023-09-05T17:57:09.136Z,100541.22
2023-09-05T17:59:41.609Z,100548.47
2023-09-05T18:02:09.530Z,100542.47
2023-09-05T18:04:37.608Z,100541.59
2023-09-05T18:07:05.441Z,100541.31
2023-09-05T18:09:33.600Z,100546.97
2023-09-05T18:12:02.105Z,100544.78
2023-09-05T18:14:29.765Z,100552.84
2023-09-05T18:16:57.299Z,100556.88
2023-09-05T18:19:25.650Z,100561.06
2023-09-05T18:21:53.387Z,100564.22
2023-09-05T18:24:21.523Z,100556.88
2023-09-05T18:26:50.658Z,100558.03
2023-09-05T18:29:20.488Z,100558.38
2023-09-05T18:31:48.223Z,100565.06
2023-09-05T18:34:42.039Z,100566.91
2023-09-05T18:37:10.984Z,100569.94
2023-09-05T18:39:39.157Z,100574.72
2023-09-05T18:42:07.928Z,100581.09
2023-09-05T18:44:40.967Z,100576.50
2023-09-05T18:47:09.688Z,100584.34
2023-09-05T18:49:38.392Z,100579.53
2023-09-05T18:52:07.683Z,100583.31
2023-09-05T18:54:37.448Z,100584.00
2023-09-05T18:57:09.044Z,100584.34
2023-09-05T18:59:37.236Z,100589.09
2023-09-05T19:02:05.283Z,100586.19
2023-09-05T19:04:33.294Z,100591.56
2023-09-05T19:07:04.020Z,100587.66
2023-09-05T19:09:31.855Z,100591.38
2023-09-05T19:12:00.286Z,100592.97
2023-09-05T19:14:28.288Z,100594.06
2023-09-05T19:16:57.126Z,100591.50
2023-09-05T19:19:28.023Z,100593.69
2023-09-05T19:21:56.034Z,100583.06
2023-09-05T19:24:23.693Z,100587.22
2023-09-05T19:26:51.866Z,100588.47
2023-09-05T19:29:19.944Z,100575.34
2023-09-05T19:31:47.653Z,100582.84
2023-09-05T19:34:15.328Z,100584.00
2023-09-05T19:36:43.109Z,100589.91
2023-09-05T19:39:10.846Z,100598.19
2023-09-05T19:41:38.731Z,100599.47
2023-09-05T19:44:06.851Z,100592.78
2023-09-05T19:46:34.411Z,100605.34
2023-09-05T19:49:06.064Z,100599.03
2023-09-05T19:51:34.124Z,100599.87
2023-09-05T19:54:01.652Z,100601.59
2023-09-05T19:56:29.277Z,100606.34
2023-09-05T19:58:57.457Z,100600.81
2023-09-05T20:01:25.157Z,100609.31
2023-09-05T20:03:53.198Z,100611.25
2023-09-05T20:06:21.322Z,100605.53
2023-09-05T20:08:48.987Z,100607.09
2023-09-05T20:11:16.858Z,100611.25
2023-09-05T20:13:44.739Z,100612.47
2023-09-05T20:16:14.101Z,100614.09
2023-09-05T20:18:42.082Z,100621.75
2023-09-05T20:21:10.935Z,100611.25
2023-09-05T20:23:39.027Z,100616.63
2023-09-05T20:26:07.965Z,100619.53
2023-09-05T20:28:36.104Z,100621.84
2023-09-05T20:31:05.151Z,100617.28
2023-09-05T20:33:33.194Z,100626.06
2023-09-05T20:36:05.543Z,100620.25
2023-09-05T20:38:34.961Z,100614.53
2023-09-05T20:41:02.649Z,100616.00
2023-09-05T20:43:30.377Z,100617.34
2023-09-05T20:45:58.237Z,100610.09
2023-09-05T20:48:26.806Z,100607.44
2023-09-05T20:50:54.609Z,100619.81
2023-09-05T20:53:22.397Z,100614.00
2023-09-05T20:55:50.557Z,100615.97
2023-09-05T20:58:18.093Z,100619.41
2023-09-05T21:00:45.980Z,100613.78
2023-09-05T21:03:13.571Z,100618.44
2023-09-05T21:05:41.120Z,100608.28
2023-09-05T21:08:08.956Z,100614.09
2023-09-05T21:10:37.456Z,100618.62
2023-09-05T21:13:05.246Z,100620.00
2023-09-05T21:15:33.108Z,100619.00
2023-09-05T21:18:00.802Z,100623.75
2023-09-05T21:20:28.382Z,100613.97
2023-09-05T21:22:56.541Z,100616.16
2023-09-05T21:25:24.073Z,100613.97
2023-09-05T21:27:51.623Z,100611.84
2023-09-05T21:30:19.907Z,100615.28
2023-09-05T21:32:48.574Z,100611.13
2023-09-05T21:35:16.098Z,100615.50
2023-09-05T21:37:45.192Z,100628.53
2023-09-05T21:40:12.872Z,100624.44
2023-09-05T21:42:42.622Z,100622.91
2023-09-05T21:45:11.224Z,100620.34
2023-09-05T21:47:38.965Z,100623.56
2023-09-05T21:50:08.266Z,100634.63
2023-09-05T21:52:36.160Z,100628.28
2023-09-05T21:55:03.968Z,100626.38
2023-09-05T21:57:31.932Z,100627.66
2023-09-05T21:59:59.899Z,100636.34
2023-09-05T22:02:28.553Z,100630.66
2023-09-05T22:04:58.070Z,100637.97
2023-09-05T22:07:25.633Z,100637.09
2023-09-05T22:09:53.265Z,100638.16
2023-09-05T22:12:22.184Z,100637.00
2023-09-05T22:14:49.800Z,100646.09
2023-09-05T22:17:17.987Z,100644.28
2023-09-05T22:19:46.190Z,100647.16
2023-09-05T22:22:16.425Z,100640.72
2023-09-05T22:24:44.021Z,100634.94
2023-09-05T22:27:12.029Z,100641.03
2023-09-05T22:29:39.621Z,100637.50
2023-09-05T22:32:07.289Z,100641.44
2023-09-05T22:34:35.229Z,100643.50
2023-09-05T22:37:03.998Z,100639.34
2023-09-05T22:39:31.557Z,100640.81
2023-09-05T22:41:59.568Z,100630.22
2023-09-05T22:44:28.323Z,100639.84
2023-09-05T22:46:56.291Z,100637.31
2023-09-05T22:49:24.265Z,100650.44
2023-09-05T22:51:52.011Z,100641.47
2023-09-05T22:54:19.711Z,100638.25
2023-09-05T22:56:47.736Z,100638.62
2023-09-05T22:59:15.394Z,100640.16
2023-09-05T23:01:42.958Z,100645.78
2023-09-05T23:04:11.069Z,100643.56
2023-09-05T23:06:38.697Z,100638.44
2023-09-05T23:09:06.468Z,100640.37
2023-09-05T23:11:34.513Z,100639.66
2023-09-05T23:14:02.032Z,100635.28
2023-09-05T23:16:30.199Z,100631.62
2023-09-05T23:19:06.053Z,100642.53
2023-09-05T23:21:33.748Z,100637.59
2023-09-05T23:24:01.843Z,100633.59
2023-09-05T23:26:30.810Z,100635.12
2023-09-05T23:28:59.222Z,100634.94
2023-09-05T23:31:28.338Z,100634.56
2023-09-05T23:33:58.493Z,100625.41
2023-09-05T23:36:26.781Z,100627.13
2023-09-05T23:38:54.559Z,100632.75
2023-09-05T23:41:28.007Z,100631.59
2023-09-05T23:43:57.243Z,100625.62
2023-09-05T23:46:24.934Z,100615.16
2023-09-05T23:48:54.037Z,100622.16
2023-09-05T23:51:22.246Z,100625.03
2023-09-05T23:53:49.753Z,100621.78
2023-09-05T23:56:17.514Z,100619.31
2023-09-05T23:58:45.759Z,100621.59
